aviador You're here:

WIII Decoded Metar

JAKARTA in INDONESIA
Report Time2018-02-21 05:00:00
UTC Time2018-02-21 05:12:26
Flight Rules vfr VFR
Wind340° at 10 kt
W.Decomp.*RWY 25: 10.0 kt RCW
W.Rank340° ranks 26
Current wind is above 340° avg. (6.4)
Visibility9999 m
Phenomena:N/A
Clouds:Scattered 020 Hf
Expected CloudBase > 2,800 ft AGL from Temp-Dew spread
CeilingNone
Temp32°C (ISA +17)
Dew Point25°C (67% RH)
Heat Index39.3°C
QNH1007 hPa
Density Alt2,589 ft
Elevation26 ft
Report Wrong Elevation
Raw Report
METAR WIII 210500Z 34010KT 9999 SCT020 32/25 Q1007 NOSIG=

Extra information for WIII:More info

Metar Taf Metar & Taf Last 4 Metars F.Rules Stats Wind Profile Meteogram Temp Stats Airport Information Weather charts Add Link Nearby VenuesMetar ALERT Operation Metar Decoded Social comments